sensor_id;sensor_type;location;lat;lon;timestamp;P1;durP1;ratioP1;P2;durP2;ratioP2
75358;SDS011;64046;51.978;5.934;2023-06-19T00:00:46;8.55;;;5.28;;
75358;SDS011;64046;51.978;5.934;2023-06-19T00:03:18;8.27;;;5.60;;
75358;SDS011;64046;51.978;5.934;2023-06-19T00:05:50;12.48;;;6.05;;
75358;SDS011;64046;51.978;5.934;2023-06-19T00:08:20;8.15;;;5.57;;
75358;SDS011;64046;51.978;5.934;2023-06-19T00:10:56;13.65;;;6.50;;
75358;SDS011;64046;51.978;5.934;2023-06-19T00:13:27;7.55;;;5.28;;
75358;SDS011;64046;51.978;5.934;2023-06-19T00:15:59;8.38;;;5.32;;
75358;SDS011;64046;51.978;5.934;2023-06-19T00:18:32;6.50;;;5.53;;
75358;SDS011;64046;51.978;5.934;2023-06-19T00:21:13;7.68;;;5.47;;
75358;SDS011;64046;51.978;5.934;2023-06-19T00:23:49;9.38;;;5.53;;
75358;SDS011;64046;51.978;5.934;2023-06-19T00:26:22;6.72;;;5.43;;
75358;SDS011;64046;51.978;5.934;2023-06-19T00:28:52;8.18;;;5.47;;
75358;SDS011;64046;51.978;5.934;2023-06-19T00:31:25;6.65;;;5.63;;
75358;SDS011;64046;51.978;5.934;2023-06-19T00:33:58;6.57;;;5.00;;
75358;SDS011;64046;51.978;5.934;2023-06-19T00:36:29;8.45;;;5.00;;
75358;SDS011;64046;51.978;5.934;2023-06-19T00:38:58;7.97;;;4.57;;
75358;SDS011;64046;51.978;5.934;2023-06-19T00:41:36;7.72;;;5.10;;
75358;SDS011;64046;51.978;5.934;2023-06-19T00:44:19;5.88;;;4.80;;
75358;SDS011;64046;51.978;5.934;2023-06-19T00:46:55;6.47;;;5.03;;
75358;SDS011;64046;51.978;5.934;2023-06-19T00:49:30;6.57;;;5.05;;
75358;SDS011;64046;51.978;5.934;2023-06-19T00:52:04;6.60;;;4.65;;
75358;SDS011;64046;51.978;5.934;2023-06-19T00:54:36;7.72;;;5.30;;
75358;SDS011;64046;51.978;5.934;2023-06-19T00:57:11;7.22;;;5.18;;
75358;SDS011;64046;51.978;5.934;2023-06-19T00:59:41;9.18;;;5.15;;
75358;SDS011;64046;51.978;5.934;2023-06-19T01:02:13;6.55;;;5.07;;
75358;SDS011;64046;51.978;5.934;2023-06-19T01:04:48;7.10;;;4.43;;
75358;SDS011;64046;51.978;5.934;2023-06-19T01:07:19;6.00;;;3.90;;
75358;SDS011;64046;51.978;5.934;2023-06-19T01:09:55;5.78;;;4.43;;
75358;SDS011;64046;51.978;5.934;2023-06-19T01:12:36;5.43;;;4.03;;
75358;SDS011;64046;51.978;5.934;2023-06-19T01:15:08;9.07;;;4.43;;
75358;SDS011;64046;51.978;5.934;2023-06-19T01:17:41;5.88;;;4.32;;
75358;SDS011;64046;51.978;5.934;2023-06-19T01:20:20;7.53;;;4.85;;
75358;SDS011;64046;51.978;5.934;2023-06-19T01:22:55;6.47;;;4.85;;
75358;SDS011;64046;51.978;5.934;2023-06-19T01:25:33;6.45;;;4.43;;
75358;SDS011;64046;51.978;5.934;2023-06-19T01:28:06;7.93;;;4.28;;
75358;SDS011;64046;51.978;5.934;2023-06-19T01:30:41;9.05;;;5.07;;
75358;SDS011;64046;51.978;5.934;2023-06-19T01:33:14;9.13;;;4.72;;
75358;SDS011;64046;51.978;5.934;2023-06-19T01:35:51;9.55;;;4.93;;
75358;SDS011;64046;51.978;5.934;2023-06-19T01:38:30;4.70;;;3.67;;
75358;SDS011;64046;51.978;5.934;2023-06-19T01:41:01;6.32;;;3.88;;
75358;SDS011;64046;51.978;5.934;2023-06-19T01:43:37;6.82;;;4.22;;
75358;SDS011;64046;51.978;5.934;2023-06-19T01:46:09;5.18;;;4.05;;
75358;SDS011;64046;51.978;5.934;2023-06-19T01:48:49;5.72;;;3.65;;
75358;SDS011;64046;51.978;5.934;2023-06-19T01:51:20;6.43;;;4.63;;
75358;SDS011;64046;51.978;5.934;2023-06-19T01:53:57;6.05;;;4.25;;
75358;SDS011;64046;51.978;5.934;2023-06-19T01:56:26;9.23;;;4.78;;
75358;SDS011;64046;51.978;5.934;2023-06-19T01:58:56;4.60;;;3.60;;
75358;SDS011;64046;51.978;5.934;2023-06-19T02:01:27;5.32;;;3.97;;
75358;SDS011;64046;51.978;5.934;2023-06-19T02:03:58;6.32;;;3.80;;
75358;SDS011;64046;51.978;5.934;2023-06-19T02:06:31;7.22;;;4.13;;
75358;SDS011;64046;51.978;5.934;2023-06-19T02:09:07;6.63;;;4.65;;
75358;SDS011;64046;51.978;5.934;2023-06-19T02:11:45;5.95;;;4.05;;
75358;SDS011;64046;51.978;5.934;2023-06-19T02:14:17;6.43;;;3.90;;
75358;SDS011;64046;51.978;5.934;2023-06-19T02:16:47;7.35;;;3.88;;
75358;SDS011;64046;51.978;5.934;2023-06-19T02:19:19;6.03;;;3.95;;
75358;SDS011;64046;51.978;5.934;2023-06-19T02:21:50;7.85;;;4.45;;
75358;SDS011;64046;51.978;5.934;2023-06-19T02:24:28;6.53;;;3.70;;
75358;SDS011;64046;51.978;5.934;2023-06-19T02:26:58;5.50;;;3.80;;
75358;SDS011;64046;51.978;5.934;2023-06-19T02:29:32;7.05;;;4.28;;
75358;SDS011;64046;51.978;5.934;2023-06-19T02:32:05;4.75;;;3.55;;
75358;SDS011;64046;51.978;5.934;2023-06-19T02:34:39;5.05;;;3.55;;
75358;SDS011;64046;51.978;5.934;2023-06-19T02:37:20;7.45;;;3.35;;
75358;SDS011;64046;51.978;5.934;2023-06-19T02:39:53;3.75;;;2.88;;
75358;SDS011;64046;51.978;5.934;2023-06-19T02:42:24;4.72;;;3.38;;
75358;SDS011;64046;51.978;5.934;2023-06-19T02:44:54;5.35;;;3.15;;
75358;SDS011;64046;51.978;5.934;2023-06-19T02:47:29;4.47;;;2.97;;
75358;SDS011;64046;51.978;5.934;2023-06-19T02:50:06;5.70;;;3.40;;
75358;SDS011;64046;51.978;5.934;2023-06-19T02:52:38;3.97;;;3.10;;
75358;SDS011;64046;51.978;5.934;2023-06-19T02:55:12;7.45;;;3.13;;
75358;SDS011;64046;51.978;5.934;2023-06-19T02:57:43;5.18;;;2.60;;
75358;SDS011;64046;51.978;5.934;2023-06-19T03:00:14;4.63;;;3.10;;
75358;SDS011;64046;51.978;5.934;2023-06-19T03:02:46;4.60;;;2.45;;
75358;SDS011;64046;51.978;5.934;2023-06-19T03:05:21;3.92;;;2.35;;
75358;SDS011;64046;51.978;5.934;2023-06-19T03:07:57;4.00;;;2.85;;
75358;SDS011;64046;51.978;5.934;2023-06-19T03:10:29;3.83;;;2.35;;
75358;SDS011;64046;51.978;5.934;2023-06-19T03:13:01;3.78;;;2.38;;
75358;SDS011;64046;51.978;5.934;2023-06-19T03:15:32;5.25;;;2.80;;
75358;SDS011;64046;51.978;5.934;2023-06-19T03:18:03;2.85;;;2.17;;
75358;SDS011;64046;51.978;5.934;2023-06-19T03:20:38;2.33;;;1.73;;
75358;SDS011;64046;51.978;5.934;2023-06-19T03:23:08;4.03;;;2.50;;
75358;SDS011;64046;51.978;5.934;2023-06-19T03:25:44;3.80;;;2.60;;
75358;SDS011;64046;51.978;5.934;2023-06-19T03:28:18;3.65;;;2.60;;
75358;SDS011;64046;51.978;5.934;2023-06-19T03:30:50;5.20;;;2.33;;
75358;SDS011;64046;51.978;5.934;2023-06-19T03:33:24;4.53;;;2.30;;
75358;SDS011;64046;51.978;5.934;2023-06-19T03:35:54;3.22;;;2.35;;
75358;SDS011;64046;51.978;5.934;2023-06-19T03:38:53;3.13;;;2.25;;
75358;SDS011;64046;51.978;5.934;2023-06-19T03:41:32;3.63;;;2.65;;
75358;SDS011;64046;51.978;5.934;2023-06-19T03:44:04;8.30;;;2.65;;
75358;SDS011;64046;51.978;5.934;2023-06-19T03:46:44;2.65;;;1.95;;
75358;SDS011;64046;51.978;5.934;2023-06-19T03:49:16;2.85;;;2.10;;
75358;SDS011;64046;51.978;5.934;2023-06-19T03:51:52;4.80;;;2.28;;
75358;SDS011;64046;51.978;5.934;2023-06-19T03:54:21;3.35;;;2.47;;
75358;SDS011;64046;51.978;5.934;2023-06-19T03:56:56;5.63;;;2.30;;
75358;SDS011;64046;51.978;5.934;2023-06-19T03:59:27;4.47;;;2.17;;
75358;SDS011;64046;51.978;5.934;2023-06-19T04:01:59;3.28;;;2.47;;
75358;SDS011;64046;51.978;5.934;2023-06-19T04:04:32;4.47;;;3.03;;
75358;SDS011;64046;51.978;5.934;2023-06-19T04:07:05;5.45;;;2.47;;
75358;SDS011;64046;51.978;5.934;2023-06-19T04:09:41;3.08;;;2.30;;
75358;SDS011;64046;51.978;5.934;2023-06-19T04:12:16;4.00;;;2.47;;
75358;SDS011;64046;51.978;5.934;2023-06-19T04:14:45;4.80;;;2.53;;
75358;SDS011;64046;51.978;5.934;2023-06-19T04:17:16;2.83;;;1.92;;
75358;SDS011;64046;51.978;5.934;2023-06-19T04:19:50;3.30;;;2.33;;
75358;SDS011;64046;51.978;5.934;2023-06-19T04:22:25;3.95;;;2.78;;
75358;SDS011;64046;51.978;5.934;2023-06-19T04:24:54;3.72;;;2.38;;
75358;SDS011;64046;51.978;5.934;2023-06-19T04:27:27;5.00;;;2.25;;
75358;SDS011;64046;51.978;5.934;2023-06-19T04:30:01;3.00;;;2.30;;
75358;SDS011;64046;51.978;5.934;2023-06-19T04:32:32;5.10;;;2.40;;
75358;SDS011;64046;51.978;5.934;2023-06-19T04:35:07;3.35;;;2.10;;
75358;SDS011;64046;51.978;5.934;2023-06-19T04:37:37;4.80;;;2.75;;
75358;SDS011;64046;51.978;5.934;2023-06-19T04:40:08;4.03;;;2.75;;
75358;SDS011;64046;51.978;5.934;2023-06-19T04:42:43;2.97;;;2.47;;
75358;SDS011;64046;51.978;5.934;2023-06-19T04:45:12;3.85;;;2.58;;
75358;SDS011;64046;51.978;5.934;2023-06-19T04:47:43;3.45;;;2.67;;
75358;SDS011;64046;51.978;5.934;2023-06-19T04:50:12;4.22;;;2.80;;
75358;SDS011;64046;51.978;5.934;2023-06-19T04:52:43;3.65;;;2.58;;
75358;SDS011;64046;51.978;5.934;2023-06-19T04:55:18;4.82;;;2.80;;
75358;SDS011;64046;51.978;5.934;2023-06-19T04:57:53;3.03;;;2.25;;
75358;SDS011;64046;51.978;5.934;2023-06-19T05:00:25;4.30;;;2.72;;
75358;SDS011;64046;51.978;5.934;2023-06-19T05:02:58;4.22;;;2.45;;
75358;SDS011;64046;51.978;5.934;2023-06-19T05:05:28;5.20;;;2.47;;
75358;SDS011;64046;51.978;5.934;2023-06-19T05:07:59;6.55;;;2.67;;
75358;SDS011;64046;51.978;5.934;2023-06-19T05:10:39;5.63;;;3.03;;
75358;SDS011;64046;51.978;5.934;2023-06-19T05:13:13;5.00;;;2.92;;
75358;SDS011;64046;51.978;5.934;2023-06-19T05:15:47;5.80;;;3.15;;
75358;SDS011;64046;51.978;5.934;2023-06-19T05:18:19;4.18;;;2.78;;
75358;SDS011;64046;51.978;5.934;2023-06-19T05:20:50;6.10;;;3.42;;
75358;SDS011;64046;51.978;5.934;2023-06-19T05:23:20;5.55;;;3.33;;
75358;SDS011;64046;51.978;5.934;2023-06-19T05:25:50;5.38;;;3.53;;
75358;SDS011;64046;51.978;5.934;2023-06-19T05:28:23;4.00;;;2.90;;
75358;SDS011;64046;51.978;5.934;2023-06-19T05:30:52;4.10;;;3.10;;
75358;SDS011;64046;51.978;5.934;2023-06-19T05:33:24;6.38;;;3.70;;
75358;SDS011;64046;51.978;5.934;2023-06-19T05:35:58;6.28;;;3.28;;
75358;SDS011;64046;51.978;5.934;2023-06-19T05:38:31;5.07;;;3.08;;
75358;SDS011;64046;51.978;5.934;2023-06-19T05:41:02;7.68;;;3.67;;
75358;SDS011;64046;51.978;5.934;2023-06-19T05:43:36;7.55;;;3.83;;
75358;SDS011;64046;51.978;5.934;2023-06-19T05:46:07;6.45;;;4.40;;
75358;SDS011;64046;51.978;5.934;2023-06-19T05:48:37;7.30;;;3.65;;
75358;SDS011;64046;51.978;5.934;2023-06-19T05:51:09;5.00;;;3.47;;
75358;SDS011;64046;51.978;5.934;2023-06-19T05:53:43;11.45;;;4.60;;
75358;SDS011;64046;51.978;5.934;2023-06-19T05:56:12;7.88;;;3.85;;
75358;SDS011;64046;51.978;5.934;2023-06-19T05:58:50;6.63;;;3.78;;
75358;SDS011;64046;51.978;5.934;2023-06-19T06:01:21;5.65;;;4.18;;
75358;SDS011;64046;51.978;5.934;2023-06-19T06:03:50;5.47;;;3.67;;
75358;SDS011;64046;51.978;5.934;2023-06-19T06:06:20;7.38;;;5.10;;
75358;SDS011;64046;51.978;5.934;2023-06-19T06:08:51;8.50;;;5.18;;
75358;SDS011;64046;51.978;5.934;2023-06-19T06:11:27;5.57;;;4.18;;
75358;SDS011;64046;51.978;5.934;2023-06-19T06:13:59;6.70;;;4.50;;
75358;SDS011;64046;51.978;5.934;2023-06-19T06:16:29;7.53;;;5.45;;
75358;SDS011;64046;51.978;5.934;2023-06-19T06:18:59;7.30;;;4.93;;
75358;SDS011;64046;51.978;5.934;2023-06-19T06:21:33;7.30;;;4.82;;
75358;SDS011;64046;51.978;5.934;2023-06-19T06:24:04;8.30;;;5.85;;
75358;SDS011;64046;51.978;5.934;2023-06-19T06:26:35;8.80;;;5.65;;
75358;SDS011;64046;51.978;5.934;2023-06-19T06:29:13;6.70;;;5.20;;
75358;SDS011;64046;51.978;5.934;2023-06-19T06:31:48;14.30;;;6.75;;
75358;SDS011;64046;51.978;5.934;2023-06-19T06:34:19;10.00;;;6.50;;
75358;SDS011;64046;51.978;5.934;2023-06-19T06:36:53;6.25;;;5.05;;
75358;SDS011;64046;51.978;5.934;2023-06-19T06:39:34;7.50;;;5.13;;
75358;SDS011;64046;51.978;5.934;2023-06-19T06:42:05;7.57;;;5.75;;
75358;SDS011;64046;51.978;5.934;2023-06-19T06:44:38;5.82;;;4.88;;
75358;SDS011;64046;51.978;5.934;2023-06-19T06:47:13;10.57;;;5.78;;
75358;SDS011;64046;51.978;5.934;2023-06-19T06:49:45;6.07;;;4.63;;
75358;SDS011;64046;51.978;5.934;2023-06-19T06:52:15;6.75;;;4.93;;
75358;SDS011;64046;51.978;5.934;2023-06-19T06:54:49;9.20;;;5.20;;
75358;SDS011;64046;51.978;5.934;2023-06-19T06:57:26;10.00;;;5.72;;
75358;SDS011;64046;51.978;5.934;2023-06-19T07:00:00;6.88;;;4.63;;
75358;SDS011;64046;51.978;5.934;2023-06-19T07:02:37;6.20;;;5.13;;
75358;SDS011;64046;51.978;5.934;2023-06-19T07:05:10;6.90;;;5.45;;
75358;SDS011;64046;51.978;5.934;2023-06-19T07:07:40;9.60;;;5.53;;
75358;SDS011;64046;51.978;5.934;2023-06-19T07:10:12;6.15;;;5.13;;
75358;SDS011;64046;51.978;5.934;2023-06-19T07:12:46;7.80;;;5.63;;
75358;SDS011;64046;51.978;5.934;2023-06-19T07:15:23;6.72;;;5.80;;
75358;SDS011;64046;51.978;5.934;2023-06-19T07:17:54;10.75;;;6.70;;
75358;SDS011;64046;51.978;5.934;2023-06-19T07:20:27;8.55;;;5.70;;
75358;SDS011;64046;51.978;5.934;2023-06-19T07:22:57;5.82;;;4.82;;
75358;SDS011;64046;51.978;5.934;2023-06-19T07:25:27;10.48;;;5.68;;
75358;SDS011;64046;51.978;5.934;2023-06-19T07:28:00;8.55;;;5.65;;
75358;SDS011;64046;51.978;5.934;2023-06-19T07:30:34;8.48;;;5.32;;
75358;SDS011;64046;51.978;5.934;2023-06-19T07:33:05;8.23;;;4.93;;
75358;SDS011;64046;51.978;5.934;2023-06-19T07:35:35;7.28;;;4.00;;
75358;SDS011;64046;51.978;5.934;2023-06-19T07:38:04;7.40;;;4.65;;
75358;SDS011;64046;51.978;5.934;2023-06-19T07:40:34;7.28;;;5.32;;
75358;SDS011;64046;51.978;5.934;2023-06-19T07:43:13;5.85;;;5.00;;
75358;SDS011;64046;51.978;5.934;2023-06-19T07:45:50;13.80;;;5.70;;
75358;SDS011;64046;51.978;5.934;2023-06-19T07:48:20;8.55;;;4.50;;
75358;SDS011;64046;51.978;5.934;2023-06-19T07:50:52;6.28;;;4.80;;
75358;SDS011;64046;51.978;5.934;2023-06-19T07:53:29;12.10;;;6.45;;
75358;SDS011;64046;51.978;5.934;2023-06-19T07:55:58;6.80;;;5.72;;
75358;SDS011;64046;51.978;5.934;2023-06-19T07:58:29;7.82;;;6.25;;
75358;SDS011;64046;51.978;5.934;2023-06-19T08:01:05;6.70;;;5.65;;
75358;SDS011;64046;51.978;5.934;2023-06-19T08:03:36;14.77;;;7.45;;
75358;SDS011;64046;51.978;5.934;2023-06-19T08:06:11;9.25;;;6.40;;
75358;SDS011;64046;51.978;5.934;2023-06-19T08:08:42;9.32;;;7.70;;
75358;SDS011;64046;51.978;5.934;2023-06-19T08:11:12;8.07;;;6.60;;
75358;SDS011;64046;51.978;5.934;2023-06-19T08:13:45;8.40;;;6.70;;
75358;SDS011;64046;51.978;5.934;2023-06-19T08:16:19;11.02;;;7.68;;
75358;SDS011;64046;51.978;5.934;2023-06-19T08:18:52;11.05;;;8.63;;
75358;SDS011;64046;51.978;5.934;2023-06-19T08:21:23;11.32;;;10.10;;
75358;SDS011;64046;51.978;5.934;2023-06-19T08:24:00;14.00;;;7.65;;
75358;SDS011;64046;51.978;5.934;2023-06-19T08:26:31;13.48;;;7.63;;
75358;SDS011;64046;51.978;5.934;2023-06-19T08:29:03;8.18;;;6.85;;
75358;SDS011;64046;51.978;5.934;2023-06-19T08:31:36;11.23;;;7.15;;
75358;SDS011;64046;51.978;5.934;2023-06-19T08:34:06;12.68;;;7.65;;
75358;SDS011;64046;51.978;5.934;2023-06-19T08:36:36;8.23;;;6.95;;
75358;SDS011;64046;51.978;5.934;2023-06-19T08:39:07;10.50;;;7.22;;
75358;SDS011;64046;51.978;5.934;2023-06-19T08:41:47;10.48;;;7.85;;
75358;SDS011;64046;51.978;5.934;2023-06-19T08:44:16;10.88;;;7.38;;
75358;SDS011;64046;51.978;5.934;2023-06-19T08:46:48;12.63;;;7.30;;
75358;SDS011;64046;51.978;5.934;2023-06-19T08:49:18;10.25;;;7.65;;
75358;SDS011;64046;51.978;5.934;2023-06-19T08:51:48;10.32;;;7.95;;
75358;SDS011;64046;51.978;5.934;2023-06-19T08:54:19;11.65;;;8.57;;
75358;SDS011;64046;51.978;5.934;2023-06-19T08:56:48;13.98;;;8.70;;
75358;SDS011;64046;51.978;5.934;2023-06-19T08:59:27;9.65;;;7.45;;
75358;SDS011;64046;51.978;5.934;2023-06-19T09:02:00;15.50;;;9.82;;
75358;SDS011;64046;51.978;5.934;2023-06-19T09:04:31;15.15;;;9.13;;
75358;SDS011;64046;51.978;5.934;2023-06-19T09:07:03;11.55;;;9.02;;
75358;SDS011;64046;51.978;5.934;2023-06-19T09:09:48;14.55;;;10.15;;
75358;SDS011;64046;51.978;5.934;2023-06-19T09:12:19;12.38;;;9.55;;
75358;SDS011;64046;51.978;5.934;2023-06-19T09:14:56;15.77;;;8.93;;
75358;SDS011;64046;51.978;5.934;2023-06-19T09:17:42;13.32;;;9.85;;
75358;SDS011;64046;51.978;5.934;2023-06-19T09:20:31;16.13;;;10.60;;
75358;SDS011;64046;51.978;5.934;2023-06-19T09:23:06;11.63;;;8.73;;
75358;SDS011;64046;51.978;5.934;2023-06-19T09:25:47;13.70;;;9.55;;
75358;SDS011;64046;51.978;5.934;2023-06-19T09:28:19;12.75;;;9.18;;
75358;SDS011;64046;51.978;5.934;2023-06-19T09:30:54;10.77;;;8.82;;
75358;SDS011;64046;51.978;5.934;2023-06-19T09:33:29;13.25;;;9.13;;
75358;SDS011;64046;51.978;5.934;2023-06-19T09:36:07;15.38;;;9.40;;
75358;SDS011;64046;51.978;5.934;2023-06-19T09:38:37;14.00;;;9.48;;
75358;SDS011;64046;51.978;5.934;2023-06-19T09:41:10;9.95;;;7.82;;
75358;SDS011;64046;51.978;5.934;2023-06-19T09:43:43;16.23;;;10.63;;
75358;SDS011;64046;51.978;5.934;2023-06-19T09:46:17;12.52;;;9.65;;
75358;SDS011;64046;51.978;5.934;2023-06-19T09:48:55;14.38;;;10.38;;
75358;SDS011;64046;51.978;5.934;2023-06-19T09:51:30;13.60;;;9.48;;
75358;SDS011;64046;51.978;5.934;2023-06-19T09:54:09;10.88;;;8.52;;
75358;SDS011;64046;51.978;5.934;2023-06-19T09:56:43;15.23;;;11.40;;
75358;SDS011;64046;51.978;5.934;2023-06-19T09:59:20;17.38;;;11.35;;
75358;SDS011;64046;51.978;5.934;2023-06-19T10:01:56;13.27;;;9.52;;
75358;SDS011;64046;51.978;5.934;2023-06-19T10:04:48;11.80;;;9.45;;
75358;SDS011;64046;51.978;5.934;2023-06-19T10:07:24;15.07;;;10.38;;
75358;SDS011;64046;51.978;5.934;2023-06-19T10:10:05;12.60;;;9.93;;
75358;SDS011;64046;51.978;5.934;2023-06-19T10:12:39;13.18;;;9.15;;
75358;SDS011;64046;51.978;5.934;2023-06-19T10:15:15;16.05;;;9.77;;
75358;SDS011;64046;51.978;5.934;2023-06-19T10:17:52;14.73;;;11.15;;
75358;SDS011;64046;51.978;5.934;2023-06-19T10:20:28;14.45;;;10.85;;
75358;SDS011;64046;51.978;5.934;2023-06-19T10:23:03;11.90;;;9.30;;
75358;SDS011;64046;51.978;5.934;2023-06-19T10:25:37;13.18;;;10.65;;
75358;SDS011;64046;51.978;5.934;2023-06-19T10:30:58;10.88;;;9.00;;
75358;SDS011;64046;51.978;5.934;2023-06-19T10:33:30;15.68;;;9.57;;
75358;SDS011;64046;51.978;5.934;2023-06-19T10:36:17;14.50;;;9.82;;
75358;SDS011;64046;51.978;5.934;2023-06-19T10:38:52;16.77;;;11.45;;
75358;SDS011;64046;51.978;5.934;2023-06-19T10:41:22;13.85;;;11.15;;
75358;SDS011;64046;51.978;5.934;2023-06-19T10:44:00;18.88;;;13.63;;
75358;SDS011;64046;51.978;5.934;2023-06-19T10:46:33;12.23;;;9.80;;
75358;SDS011;64046;51.978;5.934;2023-06-19T10:49:08;16.23;;;11.65;;
75358;SDS011;64046;51.978;5.934;2023-06-19T10:51:42;15.05;;;12.38;;
75358;SDS011;64046;51.978;5.934;2023-06-19T10:54:15;13.45;;;10.27;;
75358;SDS011;64046;51.978;5.934;2023-06-19T10:56:48;15.02;;;10.40;;
75358;SDS011;64046;51.978;5.934;2023-06-19T10:59:20;17.90;;;12.63;;
75358;SDS011;64046;51.978;5.934;2023-06-19T11:01:55;12.13;;;10.05;;
75358;SDS011;64046;51.978;5.934;2023-06-19T11:04:25;12.77;;;11.38;;
75358;SDS011;64046;51.978;5.934;2023-06-19T11:06:57;21.85;;;14.52;;
75358;SDS011;64046;51.978;5.934;2023-06-19T11:09:55;15.98;;;12.10;;
75358;SDS011;64046;51.978;5.934;2023-06-19T11:12:27;19.13;;;12.63;;
75358;SDS011;64046;51.978;5.934;2023-06-19T11:15:08;21.17;;;14.50;;
75358;SDS011;64046;51.978;5.934;2023-06-19T11:17:39;19.40;;;14.85;;
75358;SDS011;64046;51.978;5.934;2023-06-19T11:20:13;19.73;;;14.45;;
75358;SDS011;64046;51.978;5.934;2023-06-19T11:22:53;16.00;;;11.25;;
75358;SDS011;64046;51.978;5.934;2023-06-19T11:25:34;17.40;;;13.88;;
75358;SDS011;64046;51.978;5.934;2023-06-19T11:28:10;14.05;;;10.60;;
75358;SDS011;64046;51.978;5.934;2023-06-19T11:30:40;13.60;;;10.35;;
75358;SDS011;64046;51.978;5.934;2023-06-19T11:33:17;14.32;;;10.57;;
75358;SDS011;64046;51.978;5.934;2023-06-19T11:35:53;17.05;;;13.40;;
75358;SDS011;64046;51.978;5.934;2023-06-19T11:38:37;14.73;;;11.70;;
75358;SDS011;64046;51.978;5.934;2023-06-19T11:41:11;13.65;;;10.27;;
75358;SDS011;64046;51.978;5.934;2023-06-19T11:44:02;15.18;;;11.55;;
75358;SDS011;64046;51.978;5.934;2023-06-19T11:46:36;17.58;;;10.75;;
75358;SDS011;64046;51.978;5.934;2023-06-19T11:49:14;18.48;;;13.15;;
75358;SDS011;64046;51.978;5.934;2023-06-19T11:51:47;18.15;;;13.15;;
75358;SDS011;64046;51.978;5.934;2023-06-19T11:54:22;15.00;;;11.13;;
75358;SDS011;64046;51.978;5.934;2023-06-19T11:56:58;16.10;;;12.93;;
75358;SDS011;64046;51.978;5.934;2023-06-19T11:59:29;15.90;;;11.23;;
75358;SDS011;64046;51.978;5.934;2023-06-19T12:02:05;16.85;;;11.75;;
75358;SDS011;64046;51.978;5.934;2023-06-19T12:04:37;14.48;;;9.63;;
75358;SDS011;64046;51.978;5.934;2023-06-19T12:07:08;14.98;;;8.90;;
75358;SDS011;64046;51.978;5.934;2023-06-19T12:09:45;16.85;;;10.85;;
75358;SDS011;64046;51.978;5.934;2023-06-19T12:12:17;14.35;;;10.23;;
75358;SDS011;64046;51.978;5.934;2023-06-19T12:14:46;11.75;;;8.88;;
75358;SDS011;64046;51.978;5.934;2023-06-19T12:17:16;13.02;;;10.07;;
75358;SDS011;64046;51.978;5.934;2023-06-19T12:19:53;10.52;;;8.43;;
75358;SDS011;64046;51.978;5.934;2023-06-19T12:22:29;10.73;;;7.75;;
75358;SDS011;64046;51.978;5.934;2023-06-19T12:25:06;12.77;;;8.95;;
75358;SDS011;64046;51.978;5.934;2023-06-19T12:27:37;16.55;;;9.20;;
75358;SDS011;64046;51.978;5.934;2023-06-19T12:30:11;10.40;;;7.57;;
75358;SDS011;64046;51.978;5.934;2023-06-19T12:32:41;9.55;;;6.78;;
75358;SDS011;64046;51.978;5.934;2023-06-19T12:35:17;10.95;;;7.70;;
75358;SDS011;64046;51.978;5.934;2023-06-19T12:37:49;13.38;;;7.43;;
75358;SDS011;64046;51.978;5.934;2023-06-19T12:40:21;9.35;;;6.70;;
75358;SDS011;64046;51.978;5.934;2023-06-19T12:42:51;13.63;;;8.80;;
75358;SDS011;64046;51.978;5.934;2023-06-19T12:45:33;9.95;;;6.97;;
75358;SDS011;64046;51.978;5.934;2023-06-19T12:48:05;11.63;;;7.53;;
75358;SDS011;64046;51.978;5.934;2023-06-19T12:50:36;12.90;;;8.70;;
75358;SDS011;64046;51.978;5.934;2023-06-19T12:53:08;13.15;;;8.18;;
75358;SDS011;64046;51.978;5.934;2023-06-19T12:55:50;12.90;;;7.75;;
75358;SDS011;64046;51.978;5.934;2023-06-19T12:58:20;13.98;;;9.57;;
75358;SDS011;64046;51.978;5.934;2023-06-19T13:00:54;11.25;;;7.45;;
75358;SDS011;64046;51.978;5.934;2023-06-19T13:03:37;10.43;;;8.30;;
75358;SDS011;64046;51.978;5.934;2023-06-19T13:06:06;11.63;;;7.45;;
75358;SDS011;64046;51.978;5.934;2023-06-19T13:08:37;14.95;;;8.70;;
75358;SDS011;64046;51.978;5.934;2023-06-19T13:11:09;14.55;;;6.80;;
75358;SDS011;64046;51.978;5.934;2023-06-19T13:13:40;12.85;;;7.45;;
75358;SDS011;64046;51.978;5.934;2023-06-19T13:16:11;14.23;;;8.85;;
75358;SDS011;64046;51.978;5.934;2023-06-19T13:18:46;12.25;;;7.63;;
75358;SDS011;64046;51.978;5.934;2023-06-19T13:21:20;12.55;;;8.23;;
75358;SDS011;64046;51.978;5.934;2023-06-19T13:23:53;10.90;;;7.30;;
75358;SDS011;64046;51.978;5.934;2023-06-19T13:26:29;11.60;;;7.97;;
75358;SDS011;64046;51.978;5.934;2023-06-19T13:29:01;15.25;;;8.82;;
75358;SDS011;64046;51.978;5.934;2023-06-19T13:31:34;11.57;;;8.35;;
75358;SDS011;64046;51.978;5.934;2023-06-19T13:34:06;16.35;;;8.52;;
75358;SDS011;64046;51.978;5.934;2023-06-19T13:36:36;14.55;;;7.95;;
75358;SDS011;64046;51.978;5.934;2023-06-19T13:39:06;11.65;;;6.72;;
75358;SDS011;64046;51.978;5.934;2023-06-19T13:41:39;7.72;;;5.75;;
75358;SDS011;64046;51.978;5.934;2023-06-19T13:44:09;11.30;;;7.20;;
75358;SDS011;64046;51.978;5.934;2023-06-19T13:46:46;11.38;;;7.38;;
75358;SDS011;64046;51.978;5.934;2023-06-19T13:49:19;12.63;;;7.35;;
75358;SDS011;64046;51.978;5.934;2023-06-19T13:51:55;11.52;;;7.18;;
75358;SDS011;64046;51.978;5.934;2023-06-19T13:54:28;10.30;;;6.38;;
75358;SDS011;64046;51.978;5.934;2023-06-19T13:57:03;11.35;;;6.85;;
75358;SDS011;64046;51.978;5.934;2023-06-19T13:59:36;8.63;;;6.13;;
75358;SDS011;64046;51.978;5.934;2023-06-19T14:02:11;9.77;;;6.45;;
75358;SDS011;64046;51.978;5.934;2023-06-19T14:04:41;14.77;;;7.82;;
75358;SDS011;64046;51.978;5.934;2023-06-19T14:07:12;12.95;;;7.03;;
75358;SDS011;64046;51.978;5.934;2023-06-19T14:09:42;10.75;;;7.38;;
75358;SDS011;64046;51.978;5.934;2023-06-19T14:12:14;9.45;;;6.95;;
75358;SDS011;64046;51.978;5.934;2023-06-19T14:14:45;9.55;;;6.28;;
75358;SDS011;64046;51.978;5.934;2023-06-19T14:17:26;9.07;;;6.25;;
75358;SDS011;64046;51.978;5.934;2023-06-19T14:20:00;12.18;;;8.05;;
75358;SDS011;64046;51.978;5.934;2023-06-19T14:22:36;11.90;;;7.63;;
75358;SDS011;64046;51.978;5.934;2023-06-19T14:25:07;10.77;;;7.30;;
75358;SDS011;64046;51.978;5.934;2023-06-19T14:27:41;13.18;;;7.43;;
75358;SDS011;64046;51.978;5.934;2023-06-19T14:30:10;9.18;;;7.10;;
75358;SDS011;64046;51.978;5.934;2023-06-19T14:32:40;10.00;;;7.07;;
75358;SDS011;64046;51.978;5.934;2023-06-19T14:35:10;13.75;;;7.80;;
75358;SDS011;64046;51.978;5.934;2023-06-19T14:37:42;11.68;;;7.63;;
75358;SDS011;64046;51.978;5.934;2023-06-19T14:40:13;11.07;;;6.50;;
75358;SDS011;64046;51.978;5.934;2023-06-19T14:42:50;8.43;;;6.57;;
75358;SDS011;64046;51.978;5.934;2023-06-19T14:45:20;10.55;;;7.10;;
75358;SDS011;64046;51.978;5.934;2023-06-19T14:47:49;10.05;;;7.53;;
75358;SDS011;64046;51.978;5.934;2023-06-19T14:50:22;12.68;;;7.90;;
75358;SDS011;64046;51.978;5.934;2023-06-19T14:52:52;13.65;;;7.55;;
75358;SDS011;64046;51.978;5.934;2023-06-19T14:55:25;8.15;;;6.03;;
75358;SDS011;64046;51.978;5.934;2023-06-19T14:57:59;14.57;;;7.20;;
75358;SDS011;64046;51.978;5.934;2023-06-19T15:00:33;9.35;;;7.03;;
75358;SDS011;64046;51.978;5.934;2023-06-19T15:03:04;12.00;;;7.30;;
75358;SDS011;64046;51.978;5.934;2023-06-19T15:05:35;9.95;;;7.28;;
75358;SDS011;64046;51.978;5.934;2023-06-19T15:08:08;12.05;;;7.43;;
75358;SDS011;64046;51.978;5.934;2023-06-19T15:10:47;12.80;;;8.40;;
75358;SDS011;64046;51.978;5.934;2023-06-19T15:13:21;12.05;;;8.07;;
75358;SDS011;64046;51.978;5.934;2023-06-19T15:15:51;14.00;;;8.25;;
75358;SDS011;64046;51.978;5.934;2023-06-19T15:18:33;12.05;;;7.70;;
75358;SDS011;64046;51.978;5.934;2023-06-19T15:21:04;9.38;;;6.68;;